LAS weather

McCarran International Airport
Las Vegas, Nevada, United States

Public forecast

Using degrees Fahrenheit for public forecast. Weather courtesy of forecast.io.

METAR (pilot weather report)

Retrieved 2019/04/23 09:56 UTC (6 minutes ago):

KLAS 230956Z 33010KT 10SM CLR 21/03 A2997 RMK AO2 SLP131 T02060028

TAF (pilot weather forecast)

Retrieved 2019/04/23 06:22 UTC (4 hours ago):

TAF KLAS 230520Z 2306/2412 35010KT P6SM FEW080 SCT150 FM232000 04009KT P6SM FEW100 FM240400 34007KT P6SM SCT200